sensor_id;sensor_type;location;lat;lon;timestamp;P1;durP1;ratioP1;P2;durP2;ratioP2
3831;SDS011;12460;42.662;23.288;2023-11-19T00:04:03;3.53;;;3.33;;
3831;SDS011;12460;42.662;23.288;2023-11-19T00:19:06;3.30;;;3.10;;
3831;SDS011;12460;42.662;23.288;2023-11-19T00:34:10;4.43;;;4.07;;
3831;SDS011;12460;42.662;23.288;2023-11-19T00:49:12;4.37;;;3.97;;
3831;SDS011;12460;42.662;23.288;2023-11-19T01:04:14;3.43;;;3.23;;
3831;SDS011;12460;42.662;23.288;2023-11-19T01:19:16;3.87;;;3.60;;
3831;SDS011;12460;42.662;23.288;2023-11-19T01:34:18;3.60;;;3.40;;
3831;SDS011;12460;42.662;23.288;2023-11-19T01:49:20;3.37;;;3.13;;
3831;SDS011;12460;42.662;23.288;2023-11-19T02:04:22;3.90;;;3.50;;
3831;SDS011;12460;42.662;23.288;2023-11-19T02:19:25;3.23;;;3.03;;
3831;SDS011;12460;42.662;23.288;2023-11-19T02:34:27;3.60;;;3.30;;
3831;SDS011;12460;42.662;23.288;2023-11-19T02:49:29;3.60;;;3.40;;
3831;SDS011;12460;42.662;23.288;2023-11-19T03:04:30;3.50;;;3.20;;
3831;SDS011;12460;42.662;23.288;2023-11-19T03:19:32;3.20;;;2.90;;
3831;SDS011;12460;42.662;23.288;2023-11-19T03:34:34;3.50;;;3.13;;
3831;SDS011;12460;42.662;23.288;2023-11-19T03:49:36;3.40;;;3.13;;
3831;SDS011;12460;42.662;23.288;2023-11-19T04:04:38;3.67;;;3.37;;
3831;SDS011;12460;42.662;23.288;2023-11-19T04:19:40;4.43;;;3.90;;
3831;SDS011;12460;42.662;23.288;2023-11-19T04:34:43;3.30;;;3.10;;
3831;SDS011;12460;42.662;23.288;2023-11-19T04:49:45;3.33;;;3.13;;
3831;SDS011;12460;42.662;23.288;2023-11-19T05:04:47;2.97;;;2.77;;
3831;SDS011;12460;42.662;23.288;2023-11-19T05:19:50;3.57;;;3.27;;
3831;SDS011;12460;42.662;23.288;2023-11-19T05:34:52;3.60;;;3.00;;
3831;SDS011;12460;42.662;23.288;2023-11-19T05:49:54;3.40;;;3.20;;
3831;SDS011;12460;42.662;23.288;2023-11-19T06:04:56;3.40;;;3.20;;
3831;SDS011;12460;42.662;23.288;2023-11-19T06:19:58;3.40;;;3.10;;
3831;SDS011;12460;42.662;23.288;2023-11-19T06:34:59;3.30;;;3.00;;
3831;SDS011;12460;42.662;23.288;2023-11-19T06:50:01;3.83;;;3.47;;
3831;SDS011;12460;42.662;23.288;2023-11-19T07:05:07;4.10;;;3.80;;
3831;SDS011;12460;42.662;23.288;2023-11-19T07:20:10;4.90;;;4.50;;
3831;SDS011;12460;42.662;23.288;2023-11-19T07:35:15;4.27;;;3.87;;
3831;SDS011;12460;42.662;23.288;2023-11-19T07:50:20;3.73;;;3.53;;
3831;SDS011;12460;42.662;23.288;2023-11-19T08:05:22;4.37;;;3.97;;
3831;SDS011;12460;42.662;23.288;2023-11-19T08:20:26;4.10;;;3.77;;
3831;SDS011;12460;42.662;23.288;2023-11-19T08:35:28;4.50;;;4.10;;
3831;SDS011;12460;42.662;23.288;2023-11-19T08:50:30;4.33;;;4.03;;
3831;SDS011;12460;42.662;23.288;2023-11-19T09:05:32;3.73;;;3.43;;
3831;SDS011;12460;42.662;23.288;2023-11-19T09:20:34;4.80;;;4.40;;
3831;SDS011;12460;42.662;23.288;2023-11-19T09:35:40;4.43;;;4.03;;
3831;SDS011;12460;42.662;23.288;2023-11-19T09:50:41;4.90;;;4.50;;
3831;SDS011;12460;42.662;23.288;2023-11-19T10:05:44;4.17;;;3.87;;
3831;SDS011;12460;42.662;23.288;2023-11-19T10:20:46;4.90;;;4.43;;
3831;SDS011;12460;42.662;23.288;2023-11-19T10:35:51;4.70;;;4.27;;
3831;SDS011;12460;42.662;23.288;2023-11-19T10:51:00;3.73;;;3.43;;
3831;SDS011;12460;42.662;23.288;2023-11-19T11:06:07;3.23;;;2.93;;
3831;SDS011;12460;42.662;23.288;2023-11-19T11:21:11;3.80;;;3.53;;
3831;SDS011;12460;42.662;23.288;2023-11-19T11:36:20;4.10;;;3.70;;
3831;SDS011;12460;42.662;23.288;2023-11-19T12:07:05;3.53;;;3.23;;
3831;SDS011;12460;42.662;23.288;2023-11-19T12:22:13;3.83;;;3.20;;
3831;SDS011;12460;42.662;23.288;2023-11-19T12:37:16;3.70;;;3.40;;
3831;SDS011;12460;42.662;23.288;2023-11-19T12:52:18;3.60;;;3.30;;
3831;SDS011;12460;42.662;23.288;2023-11-19T13:07:20;3.80;;;3.50;;
3831;SDS011;12460;42.662;23.288;2023-11-19T13:22:23;4.10;;;3.70;;
3831;SDS011;12460;42.662;23.288;2023-11-19T13:37:25;4.80;;;3.90;;
3831;SDS011;12460;42.662;23.288;2023-11-19T13:52:27;3.37;;;3.10;;
3831;SDS011;12460;42.662;23.288;2023-11-19T14:07:28;4.60;;;4.20;;
3831;SDS011;12460;42.662;23.288;2023-11-19T14:22:30;4.30;;;3.90;;
3831;SDS011;12460;42.662;23.288;2023-11-19T14:37:32;4.20;;;3.80;;
3831;SDS011;12460;42.662;23.288;2023-11-19T14:52:35;4.97;;;3.90;;
3831;SDS011;12460;42.662;23.288;2023-11-19T15:07:38;10.07;;;7.33;;
3831;SDS011;12460;42.662;23.288;2023-11-19T15:22:41;9.10;;;6.20;;
3831;SDS011;12460;42.662;23.288;2023-11-19T15:37:44;11.40;;;7.53;;
3831;SDS011;12460;42.662;23.288;2023-11-19T15:52:46;12.03;;;8.07;;
3831;SDS011;12460;42.662;23.288;2023-11-19T16:07:49;7.70;;;6.30;;
3831;SDS011;12460;42.662;23.288;2023-11-19T16:22:51;6.33;;;5.20;;
3831;SDS011;12460;42.662;23.288;2023-11-19T16:37:53;8.00;;;6.87;;
3831;SDS011;12460;42.662;23.288;2023-11-19T16:52:55;11.40;;;9.13;;
3831;SDS011;12460;42.662;23.288;2023-11-19T17:07:57;14.87;;;8.23;;
3831;SDS011;12460;42.662;23.288;2023-11-19T17:22:59;8.90;;;6.33;;
3831;SDS011;12460;42.662;23.288;2023-11-19T17:38:02;8.80;;;7.07;;
3831;SDS011;12460;42.662;23.288;2023-11-19T17:53:05;7.30;;;5.90;;
3831;SDS011;12460;42.662;23.288;2023-11-19T18:08:07;8.80;;;7.00;;
3831;SDS011;12460;42.662;23.288;2023-11-19T18:23:12;8.80;;;7.30;;
3831;SDS011;12460;42.662;23.288;2023-11-19T18:38:15;15.87;;;10.40;;
3831;SDS011;12460;42.662;23.288;2023-11-19T18:53:18;14.20;;;8.40;;
3831;SDS011;12460;42.662;23.288;2023-11-19T19:08:23;12.23;;;8.07;;
3831;SDS011;12460;42.662;23.288;2023-11-19T19:23:24;8.07;;;5.23;;
3831;SDS011;12460;42.662;23.288;2023-11-19T19:38:26;3.50;;;3.20;;
3831;SDS011;12460;42.662;23.288;2023-11-19T19:53:28;2.50;;;2.30;;
3831;SDS011;12460;42.662;23.288;2023-11-19T20:08:30;2.67;;;2.47;;
3831;SDS011;12460;42.662;23.288;2023-11-19T20:23:32;2.63;;;2.43;;
3831;SDS011;12460;42.662;23.288;2023-11-19T20:38:34;2.00;;;1.90;;
3831;SDS011;12460;42.662;23.288;2023-11-19T20:53:37;3.07;;;2.80;;
3831;SDS011;12460;42.662;23.288;2023-11-19T21:08:40;2.40;;;2.30;;
3831;SDS011;12460;42.662;23.288;2023-11-19T21:23:42;3.80;;;3.20;;
3831;SDS011;12460;42.662;23.288;2023-11-19T21:38:44;1.80;;;1.70;;
3831;SDS011;12460;42.662;23.288;2023-11-19T21:53:46;1.93;;;1.80;;
3831;SDS011;12460;42.662;23.288;2023-11-19T22:08:47;1.83;;;1.73;;
3831;SDS011;12460;42.662;23.288;2023-11-19T22:23:49;2.10;;;2.00;;
3831;SDS011;12460;42.662;23.288;2023-11-19T22:38:51;2.10;;;1.90;;
3831;SDS011;12460;42.662;23.288;2023-11-19T22:53:53;2.10;;;1.90;;
3831;SDS011;12460;42.662;23.288;2023-11-19T23:08:57;3.10;;;2.80;;
3831;SDS011;12460;42.662;23.288;2023-11-19T23:23:59;2.83;;;2.63;;
3831;SDS011;12460;42.662;23.288;2023-11-19T23:39:01;1.93;;;1.83;;
3831;SDS011;12460;42.662;23.288;2023-11-19T23:54:03;2.40;;;2.20;;
